sensor_id;sensor_type;location;lat;lon;timestamp;P1;durP1;ratioP1;P2;durP2;ratioP2
72483;SDS011;74199;52.014;5.430;2024-01-10T00:02:04;2.67;;;1.75;;
72483;SDS011;74199;52.014;5.430;2024-01-10T00:04:31;7.15;;;2.10;;
72483;SDS011;74199;52.014;5.430;2024-01-10T00:06:58;4.07;;;1.88;;
72483;SDS011;74199;52.014;5.430;2024-01-10T00:09:25;3.63;;;1.80;;
72483;SDS011;74199;52.014;5.430;2024-01-10T00:11:52;3.38;;;1.90;;
72483;SDS011;74199;52.014;5.430;2024-01-10T00:14:19;2.60;;;1.70;;
72483;SDS011;74199;52.014;5.430;2024-01-10T00:16:46;3.85;;;1.90;;
72483;SDS011;74199;52.014;5.430;2024-01-10T00:19:13;4.00;;;1.98;;
72483;SDS011;74199;52.014;5.430;2024-01-10T00:21:40;3.15;;;1.85;;
72483;SDS011;74199;52.014;5.430;2024-01-10T00:24:07;3.33;;;1.90;;
72483;SDS011;74199;52.014;5.430;2024-01-10T00:26:34;5.25;;;1.98;;
72483;SDS011;74199;52.014;5.430;2024-01-10T00:29:01;3.10;;;2.00;;
72483;SDS011;74199;52.014;5.430;2024-01-10T00:31:30;2.72;;;1.85;;
72483;SDS011;74199;52.014;5.430;2024-01-10T00:33:58;9.93;;;1.95;;
72483;SDS011;74199;52.014;5.430;2024-01-10T00:36:25;4.07;;;1.80;;
72483;SDS011;74199;52.014;5.430;2024-01-10T00:38:52;3.58;;;1.65;;
72483;SDS011;74199;52.014;5.430;2024-01-10T00:41:19;6.60;;;2.10;;
72483;SDS011;74199;52.014;5.430;2024-01-10T00:43:46;3.60;;;1.90;;
72483;SDS011;74199;52.014;5.430;2024-01-10T00:46:13;4.57;;;1.75;;
72483;SDS011;74199;52.014;5.430;2024-01-10T00:48:40;5.88;;;1.92;;
72483;SDS011;74199;52.014;5.430;2024-01-10T00:51:07;3.83;;;2.17;;
72483;SDS011;74199;52.014;5.430;2024-01-10T00:53:35;3.20;;;1.90;;
72483;SDS011;74199;52.014;5.430;2024-01-10T00:56:05;3.00;;;1.90;;
72483;SDS011;74199;52.014;5.430;2024-01-10T00:58:33;2.63;;;1.73;;
72483;SDS011;74199;52.014;5.430;2024-01-10T01:01:00;3.13;;;1.85;;
72483;SDS011;74199;52.014;5.430;2024-01-10T01:03:27;4.05;;;2.08;;
72483;SDS011;74199;52.014;5.430;2024-01-10T01:05:55;3.17;;;1.80;;
72483;SDS011;74199;52.014;5.430;2024-01-10T01:08:22;4.22;;;1.80;;
72483;SDS011;74199;52.014;5.430;2024-01-10T01:10:49;3.10;;;1.75;;
72483;SDS011;74199;52.014;5.430;2024-01-10T01:13:16;3.35;;;2.08;;
72483;SDS011;74199;52.014;5.430;2024-01-10T01:15:43;4.15;;;2.03;;
72483;SDS011;74199;52.014;5.430;2024-01-10T01:18:11;5.30;;;2.10;;
72483;SDS011;74199;52.014;5.430;2024-01-10T01:20:39;3.33;;;2.03;;
72483;SDS011;74199;52.014;5.430;2024-01-10T01:23:06;3.67;;;2.10;;
72483;SDS011;74199;52.014;5.430;2024-01-10T01:25:33;4.43;;;2.13;;
72483;SDS011;74199;52.014;5.430;2024-01-10T01:28:00;3.60;;;1.95;;
72483;SDS011;74199;52.014;5.430;2024-01-10T01:30:27;3.08;;;2.03;;
72483;SDS011;74199;52.014;5.430;2024-01-10T01:32:56;3.53;;;1.75;;
72483;SDS011;74199;52.014;5.430;2024-01-10T01:35:23;3.22;;;1.80;;
72483;SDS011;74199;52.014;5.430;2024-01-10T01:37:50;3.75;;;1.95;;
72483;SDS011;74199;52.014;5.430;2024-01-10T01:40:18;3.92;;;1.90;;
72483;SDS011;74199;52.014;5.430;2024-01-10T01:42:45;2.85;;;1.80;;
72483;SDS011;74199;52.014;5.430;2024-01-10T01:45:12;4.43;;;2.05;;
72483;SDS011;74199;52.014;5.430;2024-01-10T01:47:40;6.28;;;2.25;;
72483;SDS011;74199;52.014;5.430;2024-01-10T01:50:08;3.00;;;2.00;;
72483;SDS011;74199;52.014;5.430;2024-01-10T01:52:35;3.58;;;2.00;;
72483;SDS011;74199;52.014;5.430;2024-01-10T01:55:04;3.25;;;1.83;;
72483;SDS011;74199;52.014;5.430;2024-01-10T01:57:33;4.03;;;2.10;;
72483;SDS011;74199;52.014;5.430;2024-01-10T02:00:00;6.47;;;1.92;;
72483;SDS011;74199;52.014;5.430;2024-01-10T02:02:30;3.63;;;1.92;;
72483;SDS011;74199;52.014;5.430;2024-01-10T02:04:58;3.83;;;2.00;;
72483;SDS011;74199;52.014;5.430;2024-01-10T02:07:26;3.75;;;1.90;;
72483;SDS011;74199;52.014;5.430;2024-01-10T02:09:53;3.03;;;1.83;;
72483;SDS011;74199;52.014;5.430;2024-01-10T02:12:20;3.83;;;1.90;;
72483;SDS011;74199;52.014;5.430;2024-01-10T02:14:48;3.75;;;2.08;;
72483;SDS011;74199;52.014;5.430;2024-01-10T02:17:14;4.13;;;2.15;;
72483;SDS011;74199;52.014;5.430;2024-01-10T02:19:42;3.50;;;1.90;;
72483;SDS011;74199;52.014;5.430;2024-01-10T02:22:09;3.75;;;2.20;;
72483;SDS011;74199;52.014;5.430;2024-01-10T02:24:37;2.65;;;1.80;;
72483;SDS011;74199;52.014;5.430;2024-01-10T02:27:04;4.20;;;1.92;;
72483;SDS011;74199;52.014;5.430;2024-01-10T02:29:31;3.92;;;2.08;;
72483;SDS011;74199;52.014;5.430;2024-01-10T02:32:00;3.22;;;1.73;;
72483;SDS011;74199;52.014;5.430;2024-01-10T02:34:27;2.90;;;2.05;;
72483;SDS011;74199;52.014;5.430;2024-01-10T02:36:55;3.17;;;1.83;;
72483;SDS011;74199;52.014;5.430;2024-01-10T02:39:23;3.97;;;2.00;;
72483;SDS011;74199;52.014;5.430;2024-01-10T02:41:50;4.28;;;2.30;;
72483;SDS011;74199;52.014;5.430;2024-01-10T02:44:17;6.95;;;2.15;;
72483;SDS011;74199;52.014;5.430;2024-01-10T02:46:46;4.82;;;2.22;;
72483;SDS011;74199;52.014;5.430;2024-01-10T02:49:13;3.17;;;1.85;;
72483;SDS011;74199;52.014;5.430;2024-01-10T02:51:40;3.42;;;2.25;;
72483;SDS011;74199;52.014;5.430;2024-01-10T02:54:07;4.32;;;1.98;;
72483;SDS011;74199;52.014;5.430;2024-01-10T02:56:34;4.22;;;2.38;;
72483;SDS011;74199;52.014;5.430;2024-01-10T02:59:01;3.63;;;1.90;;
72483;SDS011;74199;52.014;5.430;2024-01-10T03:01:28;3.50;;;2.10;;
72483;SDS011;74199;52.014;5.430;2024-01-10T03:03:55;5.03;;;2.05;;
72483;SDS011;74199;52.014;5.430;2024-01-10T03:06:22;3.88;;;1.83;;
72483;SDS011;74199;52.014;5.430;2024-01-10T03:08:49;5.38;;;2.00;;
72483;SDS011;74199;52.014;5.430;2024-01-10T03:11:16;3.85;;;1.90;;
72483;SDS011;74199;52.014;5.430;2024-01-10T03:13:43;4.93;;;2.45;;
72483;SDS011;74199;52.014;5.430;2024-01-10T03:16:12;2.97;;;1.92;;
72483;SDS011;74199;52.014;5.430;2024-01-10T03:18:39;3.63;;;2.00;;
72483;SDS011;74199;52.014;5.430;2024-01-10T03:21:06;3.88;;;2.42;;
72483;SDS011;74199;52.014;5.430;2024-01-10T03:23:33;4.90;;;2.45;;
72483;SDS011;74199;52.014;5.430;2024-01-10T03:26:00;4.82;;;1.90;;
72483;SDS011;74199;52.014;5.430;2024-01-10T03:28:27;4.70;;;2.03;;
72483;SDS011;74199;52.014;5.430;2024-01-10T03:30:54;4.53;;;2.17;;
72483;SDS011;74199;52.014;5.430;2024-01-10T03:33:21;3.40;;;2.13;;
72483;SDS011;74199;52.014;5.430;2024-01-10T03:35:48;4.97;;;2.10;;
72483;SDS011;74199;52.014;5.430;2024-01-10T03:38:15;4.18;;;2.20;;
72483;SDS011;74199;52.014;5.430;2024-01-10T03:40:43;4.35;;;2.63;;
72483;SDS011;74199;52.014;5.430;2024-01-10T03:43:10;5.18;;;2.10;;
72483;SDS011;74199;52.014;5.430;2024-01-10T03:45:38;4.97;;;2.30;;
72483;SDS011;74199;52.014;5.430;2024-01-10T03:48:05;4.88;;;2.10;;
72483;SDS011;74199;52.014;5.430;2024-01-10T03:50:33;3.25;;;2.10;;
72483;SDS011;74199;52.014;5.430;2024-01-10T03:53:00;5.65;;;2.55;;
72483;SDS011;74199;52.014;5.430;2024-01-10T03:55:28;3.20;;;2.08;;
72483;SDS011;74199;52.014;5.430;2024-01-10T03:57:56;3.35;;;2.00;;
72483;SDS011;74199;52.014;5.430;2024-01-10T04:00:23;4.55;;;2.30;;
72483;SDS011;74199;52.014;5.430;2024-01-10T04:02:51;3.72;;;1.90;;
72483;SDS011;74199;52.014;5.430;2024-01-10T04:05:19;5.38;;;2.05;;
72483;SDS011;74199;52.014;5.430;2024-01-10T04:07:47;3.67;;;2.05;;
72483;SDS011;74199;52.014;5.430;2024-01-10T04:10:14;8.20;;;2.35;;
72483;SDS011;74199;52.014;5.430;2024-01-10T04:12:42;3.65;;;2.25;;
72483;SDS011;74199;52.014;5.430;2024-01-10T04:15:09;2.22;;;1.50;;
72483;SDS011;74199;52.014;5.430;2024-01-10T04:17:36;4.97;;;2.42;;
72483;SDS011;74199;52.014;5.430;2024-01-10T04:20:04;3.95;;;2.03;;
72483;SDS011;74199;52.014;5.430;2024-01-10T04:22:31;3.53;;;2.00;;
72483;SDS011;74199;52.014;5.430;2024-01-10T04:24:59;5.13;;;2.30;;
72483;SDS011;74199;52.014;5.430;2024-01-10T04:27:27;3.53;;;2.00;;
72483;SDS011;74199;52.014;5.430;2024-01-10T04:29:54;4.78;;;2.33;;
72483;SDS011;74199;52.014;5.430;2024-01-10T04:32:21;5.03;;;2.20;;
72483;SDS011;74199;52.014;5.430;2024-01-10T04:34:48;5.07;;;2.50;;
72483;SDS011;74199;52.014;5.430;2024-01-10T04:37:15;4.63;;;2.30;;
72483;SDS011;74199;52.014;5.430;2024-01-10T04:39:42;6.10;;;2.15;;
72483;SDS011;74199;52.014;5.430;2024-01-10T04:42:12;5.57;;;2.42;;
72483;SDS011;74199;52.014;5.430;2024-01-10T04:44:39;3.40;;;1.85;;
72483;SDS011;74199;52.014;5.430;2024-01-10T04:47:06;4.10;;;2.17;;
72483;SDS011;74199;52.014;5.430;2024-01-10T04:49:34;3.92;;;2.10;;
72483;SDS011;74199;52.014;5.430;2024-01-10T04:52:01;4.32;;;2.17;;
72483;SDS011;74199;52.014;5.430;2024-01-10T04:54:28;4.22;;;2.45;;
72483;SDS011;74199;52.014;5.430;2024-01-10T04:56:55;4.05;;;2.10;;
72483;SDS011;74199;52.014;5.430;2024-01-10T04:59:22;3.17;;;1.90;;
72483;SDS011;74199;52.014;5.430;2024-01-10T05:01:49;3.90;;;2.03;;
72483;SDS011;74199;52.014;5.430;2024-01-10T05:04:16;4.05;;;2.08;;
72483;SDS011;74199;52.014;5.430;2024-01-10T05:06:43;3.47;;;2.10;;
72483;SDS011;74199;52.014;5.430;2024-01-10T05:09:11;3.72;;;1.90;;
72483;SDS011;74199;52.014;5.430;2024-01-10T05:11:38;4.45;;;2.50;;
72483;SDS011;74199;52.014;5.430;2024-01-10T05:14:09;4.38;;;2.20;;
72483;SDS011;74199;52.014;5.430;2024-01-10T05:16:36;4.68;;;2.53;;
72483;SDS011;74199;52.014;5.430;2024-01-10T05:19:03;4.38;;;2.63;;
72483;SDS011;74199;52.014;5.430;2024-01-10T05:21:31;5.90;;;2.20;;
72483;SDS011;74199;52.014;5.430;2024-01-10T05:23:59;4.55;;;2.35;;
72483;SDS011;74199;52.014;5.430;2024-01-10T05:26:26;4.45;;;2.33;;
72483;SDS011;74199;52.014;5.430;2024-01-10T05:28:53;3.60;;;2.17;;
72483;SDS011;74199;52.014;5.430;2024-01-10T05:31:20;4.35;;;2.50;;
72483;SDS011;74199;52.014;5.430;2024-01-10T05:33:47;4.20;;;2.10;;
72483;SDS011;74199;52.014;5.430;2024-01-10T05:36:14;4.30;;;2.40;;
72483;SDS011;74199;52.014;5.430;2024-01-10T05:38:41;4.65;;;2.13;;
72483;SDS011;74199;52.014;5.430;2024-01-10T05:41:08;4.97;;;2.67;;
72483;SDS011;74199;52.014;5.430;2024-01-10T05:43:35;4.50;;;2.22;;
72483;SDS011;74199;52.014;5.430;2024-01-10T05:46:03;5.20;;;2.47;;
72483;SDS011;74199;52.014;5.430;2024-01-10T05:48:31;5.95;;;2.13;;
72483;SDS011;74199;52.014;5.430;2024-01-10T05:50:59;4.55;;;2.25;;
72483;SDS011;74199;52.014;5.430;2024-01-10T05:53:27;3.42;;;2.20;;
72483;SDS011;74199;52.014;5.430;2024-01-10T05:55:54;3.63;;;2.30;;
72483;SDS011;74199;52.014;5.430;2024-01-10T05:58:22;10.77;;;2.50;;
72483;SDS011;74199;52.014;5.430;2024-01-10T06:00:48;4.50;;;2.22;;
72483;SDS011;74199;52.014;5.430;2024-01-10T06:03:15;3.58;;;2.33;;
72483;SDS011;74199;52.014;5.430;2024-01-10T06:05:43;5.10;;;2.33;;
72483;SDS011;74199;52.014;5.430;2024-01-10T06:08:10;4.18;;;2.35;;
72483;SDS011;74199;52.014;5.430;2024-01-10T06:10:37;3.88;;;2.10;;
72483;SDS011;74199;52.014;5.430;2024-01-10T06:13:04;5.55;;;2.40;;
72483;SDS011;74199;52.014;5.430;2024-01-10T06:15:31;4.68;;;2.35;;
72483;SDS011;74199;52.014;5.430;2024-01-10T06:17:58;5.90;;;2.60;;
72483;SDS011;74199;52.014;5.430;2024-01-10T06:20:25;4.15;;;2.40;;
72483;SDS011;74199;52.014;5.430;2024-01-10T06:22:52;4.80;;;2.65;;
72483;SDS011;74199;52.014;5.430;2024-01-10T06:25:19;6.65;;;2.50;;
72483;SDS011;74199;52.014;5.430;2024-01-10T06:27:46;4.50;;;2.63;;
72483;SDS011;74199;52.014;5.430;2024-01-10T06:30:13;6.30;;;2.63;;
72483;SDS011;74199;52.014;5.430;2024-01-10T06:32:40;4.65;;;2.40;;
72483;SDS011;74199;52.014;5.430;2024-01-10T06:35:07;4.80;;;2.50;;
72483;SDS011;74199;52.014;5.430;2024-01-10T06:37:37;8.40;;;2.35;;
72483;SDS011;74199;52.014;5.430;2024-01-10T06:40:04;4.72;;;2.58;;
72483;SDS011;74199;52.014;5.430;2024-01-10T06:42:32;6.32;;;2.72;;
72483;SDS011;74199;52.014;5.430;2024-01-10T06:44:59;6.75;;;2.92;;
72483;SDS011;74199;52.014;5.430;2024-01-10T06:47:26;10.57;;;3.53;;
72483;SDS011;74199;52.014;5.430;2024-01-10T06:49:54;7.45;;;3.45;;
72483;SDS011;74199;52.014;5.430;2024-01-10T06:52:21;6.63;;;3.97;;
72483;SDS011;74199;52.014;5.430;2024-01-10T06:54:48;7.18;;;4.03;;
72483;SDS011;74199;52.014;5.430;2024-01-10T06:57:15;9.57;;;4.68;;
72483;SDS011;74199;52.014;5.430;2024-01-10T06:59:42;11.88;;;4.75;;
72483;SDS011;74199;52.014;5.430;2024-01-10T07:02:10;9.93;;;4.57;;
72483;SDS011;74199;52.014;5.430;2024-01-10T07:04:37;8.73;;;4.82;;
72483;SDS011;74199;52.014;5.430;2024-01-10T07:07:05;10.15;;;4.57;;
72483;SDS011;74199;52.014;5.430;2024-01-10T07:09:32;8.27;;;4.55;;
72483;SDS011;74199;52.014;5.430;2024-01-10T07:11:59;10.50;;;4.95;;
72483;SDS011;74199;52.014;5.430;2024-01-10T07:14:26;9.38;;;5.13;;
72483;SDS011;74199;52.014;5.430;2024-01-10T07:16:53;12.00;;;5.05;;
72483;SDS011;74199;52.014;5.430;2024-01-10T07:19:23;9.38;;;5.03;;
72483;SDS011;74199;52.014;5.430;2024-01-10T07:21:50;10.27;;;4.95;;
72483;SDS011;74199;52.014;5.430;2024-01-10T07:24:20;9.13;;;5.20;;
72483;SDS011;74199;52.014;5.430;2024-01-10T07:26:47;10.07;;;5.22;;
72483;SDS011;74199;52.014;5.430;2024-01-10T07:29:14;10.40;;;4.78;;
72483;SDS011;74199;52.014;5.430;2024-01-10T07:31:42;10.13;;;5.53;;
72483;SDS011;74199;52.014;5.430;2024-01-10T07:34:08;13.57;;;7.05;;
72483;SDS011;74199;52.014;5.430;2024-01-10T07:36:42;10.85;;;6.32;;
72483;SDS011;74199;52.014;5.430;2024-01-10T07:39:09;10.98;;;5.32;;
72483;SDS011;74199;52.014;5.430;2024-01-10T07:41:36;8.73;;;5.22;;
72483;SDS011;74199;52.014;5.430;2024-01-10T07:44:03;10.77;;;5.78;;
72483;SDS011;74199;52.014;5.430;2024-01-10T07:46:30;11.57;;;5.88;;
72483;SDS011;74199;52.014;5.430;2024-01-10T07:48:58;9.40;;;4.85;;
72483;SDS011;74199;52.014;5.430;2024-01-10T07:51:27;10.18;;;5.05;;
72483;SDS011;74199;52.014;5.430;2024-01-10T07:53:54;10.18;;;5.15;;
72483;SDS011;74199;52.014;5.430;2024-01-10T07:56:21;9.48;;;5.07;;
72483;SDS011;74199;52.014;5.430;2024-01-10T07:58:48;9.00;;;4.70;;
72483;SDS011;74199;52.014;5.430;2024-01-10T08:01:15;10.40;;;4.88;;
72483;SDS011;74199;52.014;5.430;2024-01-10T08:03:42;11.25;;;5.07;;
72483;SDS011;74199;52.014;5.430;2024-01-10T08:06:09;11.38;;;4.65;;
72483;SDS011;74199;52.014;5.430;2024-01-10T08:08:52;9.45;;;4.90;;
72483;SDS011;74199;52.014;5.430;2024-01-10T08:11:19;9.88;;;4.40;;
72483;SDS011;74199;52.014;5.430;2024-01-10T08:13:46;9.50;;;4.65;;
72483;SDS011;74199;52.014;5.430;2024-01-10T08:16:13;16.65;;;5.15;;
72483;SDS011;74199;52.014;5.430;2024-01-10T08:18:40;12.40;;;5.25;;
72483;SDS011;74199;52.014;5.430;2024-01-10T08:21:08;9.93;;;5.00;;
72483;SDS011;74199;52.014;5.430;2024-01-10T08:23:35;9.73;;;4.72;;
72483;SDS011;74199;52.014;5.430;2024-01-10T08:26:02;11.35;;;5.13;;
72483;SDS011;74199;52.014;5.430;2024-01-10T08:28:32;9.18;;;4.15;;
72483;SDS011;74199;52.014;5.430;2024-01-10T08:30:59;10.88;;;4.25;;
72483;SDS011;74199;52.014;5.430;2024-01-10T08:33:30;8.80;;;4.45;;
72483;SDS011;74199;52.014;5.430;2024-01-10T08:35:58;10.30;;;4.53;;
72483;SDS011;74199;52.014;5.430;2024-01-10T08:38:25;9.82;;;4.07;;
72483;SDS011;74199;52.014;5.430;2024-01-10T08:40:53;10.25;;;4.50;;
72483;SDS011;74199;52.014;5.430;2024-01-10T08:43:20;10.77;;;4.25;;
72483;SDS011;74199;52.014;5.430;2024-01-10T08:45:47;7.93;;;4.05;;
72483;SDS011;74199;52.014;5.430;2024-01-10T08:48:14;9.63;;;4.30;;
72483;SDS011;74199;52.014;5.430;2024-01-10T08:50:42;7.57;;;3.90;;
72483;SDS011;74199;52.014;5.430;2024-01-10T08:53:10;11.00;;;4.38;;
72483;SDS011;74199;52.014;5.430;2024-01-10T08:55:37;7.65;;;4.10;;
72483;SDS011;74199;52.014;5.430;2024-01-10T08:58:04;8.98;;;4.22;;
72483;SDS011;74199;52.014;5.430;2024-01-10T09:00:31;9.00;;;3.72;;
72483;SDS011;74199;52.014;5.430;2024-01-10T09:02:59;7.88;;;4.15;;
72483;SDS011;74199;52.014;5.430;2024-01-10T09:05:26;7.05;;;4.28;;
72483;SDS011;74199;52.014;5.430;2024-01-10T09:07:53;8.68;;;4.13;;
72483;SDS011;74199;52.014;5.430;2024-01-10T09:10:20;9.65;;;4.25;;
72483;SDS011;74199;52.014;5.430;2024-01-10T09:12:54;8.10;;;4.03;;
72483;SDS011;74199;52.014;5.430;2024-01-10T09:15:22;7.70;;;3.97;;
72483;SDS011;74199;52.014;5.430;2024-01-10T09:17:49;17.35;;;4.10;;
72483;SDS011;74199;52.014;5.430;2024-01-10T09:20:16;11.77;;;4.35;;
72483;SDS011;74199;52.014;5.430;2024-01-10T09:22:43;11.55;;;3.95;;
72483;SDS011;74199;52.014;5.430;2024-01-10T09:25:10;11.20;;;3.83;;
72483;SDS011;74199;52.014;5.430;2024-01-10T09:27:38;7.85;;;3.67;;
72483;SDS011;74199;52.014;5.430;2024-01-10T09:30:10;12.07;;;3.97;;
72483;SDS011;74199;52.014;5.430;2024-01-10T09:32:38;6.43;;;3.67;;
72483;SDS011;74199;52.014;5.430;2024-01-10T09:35:06;7.93;;;3.65;;
72483;SDS011;74199;52.014;5.430;2024-01-10T09:37:34;9.80;;;3.97;;
72483;SDS011;74199;52.014;5.430;2024-01-10T09:40:01;10.20;;;3.70;;
72483;SDS011;74199;52.014;5.430;2024-01-10T09:42:29;7.28;;;3.50;;
72483;SDS011;74199;52.014;5.430;2024-01-10T09:44:59;9.40;;;3.78;;
72483;SDS011;74199;52.014;5.430;2024-01-10T09:47:29;12.20;;;4.00;;
72483;SDS011;74199;52.014;5.430;2024-01-10T09:49:59;10.35;;;4.22;;
72483;SDS011;74199;52.014;5.430;2024-01-10T09:52:28;9.52;;;3.75;;
72483;SDS011;74199;52.014;5.430;2024-01-10T09:55:00;8.52;;;3.58;;
72483;SDS011;74199;52.014;5.430;2024-01-10T09:57:27;9.25;;;3.78;;
72483;SDS011;74199;52.014;5.430;2024-01-10T09:59:55;7.93;;;3.92;;
72483;SDS011;74199;52.014;5.430;2024-01-10T10:02:22;8.55;;;3.75;;
72483;SDS011;74199;52.014;5.430;2024-01-10T10:05:03;8.15;;;4.03;;
72483;SDS011;74199;52.014;5.430;2024-01-10T10:07:45;10.63;;;4.15;;
72483;SDS011;74199;52.014;5.430;2024-01-10T10:10:17;9.35;;;3.60;;
72483;SDS011;74199;52.014;5.430;2024-01-10T10:12:48;8.82;;;4.20;;
72483;SDS011;74199;52.014;5.430;2024-01-10T10:15:19;11.05;;;4.22;;
72483;SDS011;74199;52.014;5.430;2024-01-10T10:17:49;9.77;;;3.53;;
72483;SDS011;74199;52.014;5.430;2024-01-10T10:20:21;7.63;;;3.88;;
72483;SDS011;74199;52.014;5.430;2024-01-10T10:28:08;8.85;;;3.85;;
72483;SDS011;74199;52.014;5.430;2024-01-10T10:30:45;11.63;;;3.70;;
72483;SDS011;74199;52.014;5.430;2024-01-10T10:33:13;9.45;;;4.20;;
72483;SDS011;74199;52.014;5.430;2024-01-10T10:35:40;7.80;;;3.83;;
72483;SDS011;74199;52.014;5.430;2024-01-10T10:38:14;7.03;;;3.70;;
72483;SDS011;74199;52.014;5.430;2024-01-10T10:40:41;8.60;;;3.70;;
72483;SDS011;74199;52.014;5.430;2024-01-10T10:43:09;8.35;;;3.45;;
72483;SDS011;74199;52.014;5.430;2024-01-10T10:45:47;10.30;;;4.07;;
72483;SDS011;74199;52.014;5.430;2024-01-10T10:48:18;7.78;;;4.03;;
72483;SDS011;74199;52.014;5.430;2024-01-10T10:51:10;9.30;;;3.97;;
72483;SDS011;74199;52.014;5.430;2024-01-10T10:53:42;8.73;;;3.92;;
72483;SDS011;74199;52.014;5.430;2024-01-10T10:56:12;8.88;;;4.38;;
72483;SDS011;74199;52.014;5.430;2024-01-10T10:58:40;9.00;;;4.05;;
72483;SDS011;74199;52.014;5.430;2024-01-10T11:01:10;10.20;;;4.18;;
72483;SDS011;74199;52.014;5.430;2024-01-10T11:03:38;10.13;;;4.70;;
72483;SDS011;74199;52.014;5.430;2024-01-10T11:06:07;18.15;;;4.20;;
72483;SDS011;74199;52.014;5.430;2024-01-10T11:08:58;11.18;;;4.97;;
72483;SDS011;74199;52.014;5.430;2024-01-10T11:17:26;8.75;;;4.30;;
72483;SDS011;74199;52.014;5.430;2024-01-10T11:23:12;7.90;;;3.85;;
72483;SDS011;74199;52.014;5.430;2024-01-10T11:28:32;8.75;;;3.35;;
72483;SDS011;74199;52.014;5.430;2024-01-10T11:30:59;6.25;;;3.50;;
72483;SDS011;74199;52.014;5.430;2024-01-10T11:33:30;7.13;;;3.40;;
72483;SDS011;74199;52.014;5.430;2024-01-10T11:38:32;6.88;;;3.38;;
72483;SDS011;74199;52.014;5.430;2024-01-10T11:40:59;11.95;;;3.85;;
72483;SDS011;74199;52.014;5.430;2024-01-10T11:43:30;11.45;;;3.80;;
72483;SDS011;74199;52.014;5.430;2024-01-10T11:45:57;17.00;;;5.78;;
72483;SDS011;74199;52.014;5.430;2024-01-10T11:48:27;7.80;;;3.92;;
72483;SDS011;74199;52.014;5.430;2024-01-10T11:50:56;7.90;;;3.78;;
72483;SDS011;74199;52.014;5.430;2024-01-10T11:53:43;8.20;;;3.67;;
72483;SDS011;74199;52.014;5.430;2024-01-10T11:56:14;7.40;;;3.63;;
72483;SDS011;74199;52.014;5.430;2024-01-10T11:59:06;9.05;;;3.88;;
72483;SDS011;74199;52.014;5.430;2024-01-10T12:01:42;8.73;;;4.18;;
72483;SDS011;74199;52.014;5.430;2024-01-10T12:04:09;8.38;;;3.65;;
72483;SDS011;74199;52.014;5.430;2024-01-10T12:06:49;11.43;;;4.20;;
72483;SDS011;74199;52.014;5.430;2024-01-10T12:09:16;9.90;;;4.25;;
72483;SDS011;74199;52.014;5.430;2024-01-10T12:11:44;9.77;;;3.92;;
72483;SDS011;74199;52.014;5.430;2024-01-10T12:14:11;10.60;;;3.95;;
72483;SDS011;74199;52.014;5.430;2024-01-10T12:16:38;7.80;;;3.85;;
72483;SDS011;74199;52.014;5.430;2024-01-10T12:19:05;6.90;;;3.70;;
72483;SDS011;74199;52.014;5.430;2024-01-10T12:21:32;7.93;;;3.85;;
72483;SDS011;74199;52.014;5.430;2024-01-10T12:23:59;13.07;;;5.13;;
72483;SDS011;74199;52.014;5.430;2024-01-10T12:26:26;8.40;;;3.90;;
72483;SDS011;74199;52.014;5.430;2024-01-10T12:28:54;6.47;;;3.80;;
72483;SDS011;74199;52.014;5.430;2024-01-10T12:31:23;10.00;;;3.60;;
72483;SDS011;74199;52.014;5.430;2024-01-10T12:33:56;8.57;;;3.90;;
72483;SDS011;74199;52.014;5.430;2024-01-10T12:36:24;7.43;;;3.47;;
72483;SDS011;74199;52.014;5.430;2024-01-10T12:38:51;8.05;;;3.40;;
72483;SDS011;74199;52.014;5.430;2024-01-10T12:41:18;7.50;;;3.65;;
72483;SDS011;74199;52.014;5.430;2024-01-10T12:43:49;8.68;;;4.00;;
72483;SDS011;74199;52.014;5.430;2024-01-10T12:46:19;6.75;;;3.53;;
72483;SDS011;74199;52.014;5.430;2024-01-10T12:48:49;7.70;;;3.75;;
72483;SDS011;74199;52.014;5.430;2024-01-10T12:51:27;7.88;;;3.45;;
72483;SDS011;74199;52.014;5.430;2024-01-10T12:53:58;9.52;;;4.20;;
72483;SDS011;74199;52.014;5.430;2024-01-10T12:56:26;7.60;;;3.90;;
72483;SDS011;74199;52.014;5.430;2024-01-10T12:58:54;7.18;;;3.90;;
72483;SDS011;74199;52.014;5.430;2024-01-10T13:01:23;8.02;;;3.72;;
72483;SDS011;74199;52.014;5.430;2024-01-10T13:03:51;10.32;;;4.38;;
72483;SDS011;74199;52.014;5.430;2024-01-10T13:06:19;10.95;;;4.38;;
72483;SDS011;74199;52.014;5.430;2024-01-10T13:08:49;7.60;;;3.88;;
72483;SDS011;74199;52.014;5.430;2024-01-10T13:11:16;8.30;;;4.40;;
72483;SDS011;74199;52.014;5.430;2024-01-10T13:13:44;7.95;;;3.78;;
72483;SDS011;74199;52.014;5.430;2024-01-10T13:16:11;11.30;;;3.90;;
72483;SDS011;74199;52.014;5.430;2024-01-10T13:18:39;8.98;;;4.18;;
72483;SDS011;74199;52.014;5.430;2024-01-10T13:21:06;8.60;;;4.07;;
72483;SDS011;74199;52.014;5.430;2024-01-10T13:23:34;10.68;;;4.18;;
72483;SDS011;74199;52.014;5.430;2024-01-10T13:26:02;8.23;;;4.00;;
72483;SDS011;74199;52.014;5.430;2024-01-10T13:28:30;10.73;;;4.43;;
72483;SDS011;74199;52.014;5.430;2024-01-10T13:30:57;9.15;;;4.28;;
72483;SDS011;74199;52.014;5.430;2024-01-10T13:33:24;8.00;;;3.95;;
72483;SDS011;74199;52.014;5.430;2024-01-10T13:35:52;8.15;;;3.60;;
72483;SDS011;74199;52.014;5.430;2024-01-10T13:38:19;7.57;;;3.70;;
72483;SDS011;74199;52.014;5.430;2024-01-10T13:40:46;8.60;;;4.10;;
72483;SDS011;74199;52.014;5.430;2024-01-10T13:43:14;9.57;;;4.03;;
72483;SDS011;74199;52.014;5.430;2024-01-10T13:45:42;8.70;;;4.07;;
72483;SDS011;74199;52.014;5.430;2024-01-10T13:48:09;10.50;;;3.55;;
72483;SDS011;74199;52.014;5.430;2024-01-10T13:50:37;8.27;;;3.67;;
72483;SDS011;74199;52.014;5.430;2024-01-10T13:53:04;8.60;;;3.60;;
72483;SDS011;74199;52.014;5.430;2024-01-10T13:55:31;12.10;;;3.90;;
72483;SDS011;74199;52.014;5.430;2024-01-10T13:57:58;11.00;;;4.20;;
72483;SDS011;74199;52.014;5.430;2024-01-10T14:00:25;10.05;;;3.88;;
72483;SDS011;74199;52.014;5.430;2024-01-10T14:02:53;8.43;;;4.35;;
72483;SDS011;74199;52.014;5.430;2024-01-10T14:05:28;8.32;;;3.88;;
72483;SDS011;74199;52.014;5.430;2024-01-10T14:07:56;8.95;;;4.00;;
72483;SDS011;74199;52.014;5.430;2024-01-10T14:10:23;8.93;;;4.65;;
72483;SDS011;74199;52.014;5.430;2024-01-10T14:12:50;16.73;;;4.43;;
72483;SDS011;74199;52.014;5.430;2024-01-10T14:15:18;10.07;;;4.20;;
72483;SDS011;74199;52.014;5.430;2024-01-10T14:17:45;9.18;;;4.07;;
72483;SDS011;74199;52.014;5.430;2024-01-10T14:20:15;6.70;;;3.65;;
72483;SDS011;74199;52.014;5.430;2024-01-10T14:22:42;8.30;;;3.90;;
72483;SDS011;74199;52.014;5.430;2024-01-10T14:25:09;7.63;;;3.97;;
72483;SDS011;74199;52.014;5.430;2024-01-10T14:27:36;8.68;;;3.67;;
72483;SDS011;74199;52.014;5.430;2024-01-10T14:30:05;8.95;;;4.00;;
72483;SDS011;74199;52.014;5.430;2024-01-10T14:32:35;8.15;;;3.83;;
72483;SDS011;74199;52.014;5.430;2024-01-10T14:35:04;9.95;;;3.92;;
72483;SDS011;74199;52.014;5.430;2024-01-10T14:37:32;9.25;;;4.07;;
72483;SDS011;74199;52.014;5.430;2024-01-10T14:40:02;9.43;;;4.22;;
72483;SDS011;74199;52.014;5.430;2024-01-10T14:42:30;9.57;;;3.88;;
72483;SDS011;74199;52.014;5.430;2024-01-10T14:45:02;10.82;;;4.53;;
72483;SDS011;74199;52.014;5.430;2024-01-10T14:47:30;12.48;;;4.63;;
72483;SDS011;74199;52.014;5.430;2024-01-10T14:49:57;9.50;;;4.65;;
72483;SDS011;74199;52.014;5.430;2024-01-10T14:52:24;12.75;;;4.55;;
72483;SDS011;74199;52.014;5.430;2024-01-10T14:54:52;12.88;;;4.57;;
72483;SDS011;74199;52.014;5.430;2024-01-10T14:57:19;11.02;;;4.70;;
72483;SDS011;74199;52.014;5.430;2024-01-10T14:59:47;10.23;;;4.57;;
72483;SDS011;74199;52.014;5.430;2024-01-10T15:02:15;9.13;;;4.50;;
72483;SDS011;74199;52.014;5.430;2024-01-10T15:04:44;10.25;;;4.20;;
72483;SDS011;74199;52.014;5.430;2024-01-10T15:07:12;8.30;;;4.53;;
72483;SDS011;74199;52.014;5.430;2024-01-10T15:09:41;9.82;;;4.55;;
72483;SDS011;74199;52.014;5.430;2024-01-10T15:12:09;9.45;;;4.68;;